Aérodrome :
LOGIN :

S'inscrire | Disclaimer

   EN    FR    IT 

 










Légende :    VFR   VFR Marginal   IFR   IFR Intensif   IFR Très Intensif
Visi : 
Plafond : 
>= 8 km
>= 3000ft
5 à 8 km
1000 à 3000 ft
1500m à 5 km
500 à 1000 ft
800 à 1500m
200 à 500 ft
< 800m
< 200 ft
Symboles :   Orages  Brouillard  Fortes neiges  Fortes précipitations  Vent > 20 kt
SIGMETs :   Divers  Orages  Givrage  Turbulence  Onde Orograph.  Cendres Volcan.







- Altitude de l'aérodrome : 56 ft
- Code IATA : ILY
- Voir les cartes d'approche


EGPI - Islay

DERNIER METAR :
  • 240550Z AUTO 14009KT 9999 SCT016/// SCT048/// 16/15 Q1006 RERA

METARs EXPIRÉS :
  • 240520Z AUTO 13006KT 9999 SCT037/// 16/15 Q1006 RERA
  • 240320Z AUTO 14006KT 100V160 9999 BKN044/// 17/16 Q1005

TAF TAF EGPI
Valide du 24 à 06h jusqu'au 24 à 15h UTC


240558Z 2406/2415 12008KT 9999 SCT035
BECMG 2406/2409 18012KT
PROB30
TEMPO 2406/2410 4000 +SHRA
Pas de NOTAMs connus pour ce terrain.
2 SIGMETs publiés pour la FIR Scottish (EGPX) :
 
Orages noyés dans la masse avec grêle
EGPX SIGMET 03 VALID 240610/241000 EGRR
EGPX SCOTTISH FIR EMBD TSGR FCST WI N5952 W00345 - N5745 E00019 - N5621 W00247 - N5837 W00636 - N5952 W00345 TOP FL380 MOV N 40KT NC=
Orages noyés dans la masse avec grêle
EGPX SIGMET 02 VALID 240300/240700 EGRR
EGPX SCOTTISH FIR EMBD TSGR FCST WI N5500 W00457 - N5504 W00502 - N5643 W00200 - N5500 W00055 - N5500 W00457 TOP FL380 MOV N 45KT NC=



MET'MAP, la Météo Aéronautique d'un coup d'oeil ! - Copyright ORBIFLY Décembre 2007 - Disclaimer

ORBIFLY MET'MAP TEAM :

Programmation & Développement : Alexandra Zaïnal
Conception & Développement : Baudouin d'Aumeries
Co-Programmation & Développement : Marc-Olivier Méhu
Soutien technique & logistique : Manuel Goepfert

Contact : metmap@orbifly.com




SOURCES & CREDITS :

   NOAA